Time;durP1;ratioP1;P1;durP2;ratioP2;P2;SDS_P1;SDS_P2;PMS_P1;PMS_P2;Temp;Humidity;BMP_temperature;BMP_pressure;BME280_temperature;BME280_humidity;BME280_pressure;Samples;Min_cycle;Max_cycle;Signal;HPM_P1;HPM_P2
2021/04/11 00:00:38;;;;;;;;;;;2.90;99.90;;;;;;10472338;28;20194;-68
2021/04/11 00:05:41;;;;;;;73.10;19.15;;;3.00;99.90;;;;;;10473282;28;19927;-68
2021/04/11 00:10:46;;;;;;;65.40;18.88;;;3.00;99.90;;;;;;10469982;28;20473;-67
2021/04/11 00:15:47;;;;;;;78.30;22.00;;;3.00;99.90;;;;;;10472035;28;20063;-67
2021/04/11 00:20:49;;;;;;;77.78;21.42;;;3.00;99.90;;;;;;10471556;28;20139;-68
2021/04/11 00:25:52;;;;;;;93.13;24.35;;;3.10;99.90;;;;;;10471261;28;20312;-68
2021/04/11 00:30:53;;;;;;;67.40;18.42;;;3.10;99.90;;;;;;10471130;28;20059;-68
2021/04/11 00:35:56;;;;;;;63.58;16.42;;;3.10;99.90;;;;;;10470558;28;20049;-68
2021/04/11 00:41:02;;;;;;;51.72;12.32;;;3.10;99.90;;;;;;10467908;28;20055;-67
2021/04/11 00:46:14;;;;;;;34.35;9.50;;;3.10;99.90;;;;;;10465555;28;20044;-69
2021/04/11 00:51:18;;;;;;;35.67;9.13;;;3.10;99.90;;;;;;10469098;28;20045;-68
2021/04/11 00:56:20;;;;;;;35.42;9.15;;;3.10;99.90;;;;;;10469741;28;20041;-68
2021/04/11 01:01:22;;;;;;;29.50;7.38;;;3.10;99.90;;;;;;10469410;28;20270;-67
2021/04/11 01:06:28;;;;;;;26.75;7.78;;;3.00;99.90;;;;;;10466493;28;20044;-68
2021/04/11 01:11:32;;;;;;;41.40;8.57;;;3.00;99.90;;;;;;10466382;28;20198;-67
2021/04/11 01:16:34;;;;;;;25.40;7.90;;;3.00;99.90;;;;;;10462112;28;20481;-67
2021/04/11 01:21:44;;;;;;;21.98;6.15;;;3.00;99.90;;;;;;10468068;28;20044;-68
2021/04/11 01:26:50;;;;;;;25.02;7.43;;;3.00;99.90;;;;;;10467686;28;20036;-68
2021/04/11 01:31:51;;;;;;;25.33;6.45;;;3.00;99.90;;;;;;10468045;28;20093;-68
2021/04/11 01:36:54;;;;;;;17.73;5.60;;;2.90;99.90;;;;;;10470058;28;20072;-68
2021/04/11 01:41:57;;;;;;;30.73;7.63;;;2.90;99.90;;;;;;10469536;28;20060;-67
2021/04/11 01:46:59;;;;;;;20.08;4.90;;;2.90;99.90;;;;;;10468359;28;20055;-67
2021/04/11 01:52:04;;;;;;;29.63;6.05;;;2.90;99.90;;;;;;10470558;28;20036;-68
2021/04/11 01:57:08;;;;;;;28.20;5.93;;;2.90;99.90;;;;;;10468293;28;20048;-67
2021/04/11 02:02:12;;;;;;;25.38;5.80;;;2.90;99.90;;;;;;10469232;28;20091;-66
2021/04/11 02:07:14;;;;;;;20.08;4.50;;;2.90;99.90;;;;;;10467552;28;20070;-67
2021/04/11 02:12:17;;;;;;;18.30;4.18;;;2.90;99.90;;;;;;10467669;28;20051;-66
2021/04/11 02:17:18;;;;;;;27.80;4.60;;;2.90;99.90;;;;;;10464352;28;20159;-67
2021/04/11 02:22:24;;;;;;;25.48;3.88;;;2.90;99.90;;;;;;10468407;28;20041;-67
2021/04/11 02:27:26;;;;;;;16.40;3.13;;;2.90;99.90;;;;;;10473859;28;20049;-67
2021/04/11 02:32:29;;;;;;;16.07;3.33;;;2.90;99.90;;;;;;10476558;28;20155;-66
2021/04/11 02:37:34;;;;;;;10.52;2.40;;;2.90;99.90;;;;;;10478844;28;20145;-67
2021/04/11 02:42:37;;;;;;;19.20;2.85;;;2.90;99.90;;;;;;10478843;28;20051;-67
2021/04/11 02:47:38;;;;;;;33.35;3.38;;;2.90;99.90;;;;;;10477497;28;20135;-65
2021/04/11 02:52:44;;;;;;;19.10;3.50;;;2.90;99.90;;;;;;10480195;28;21200;-67
2021/04/11 02:57:46;;;;;;;22.67;3.70;;;2.90;99.90;;;;;;10478975;28;20040;-66
2021/04/11 03:02:47;;;;;;;23.25;3.35;;;2.90;99.90;;;;;;10478133;28;20139;-66
2021/04/11 03:07:52;;;;;;;22.70;3.00;;;2.90;99.90;;;;;;10477713;28;20044;-66
2021/04/11 03:12:56;;;;;;;14.88;3.05;;;2.90;99.90;;;;;;10478361;28;20143;-66
2021/04/11 03:17:57;;;;;;;12.32;2.50;;;2.80;99.90;;;;;;10477389;28;20047;-67
2021/04/11 03:23:00;;;;;;;23.75;3.67;;;2.80;99.90;;;;;;10476660;28;20048;-67
2021/04/11 03:28:07;;;;;;;16.93;3.33;;;2.80;99.90;;;;;;10477139;28;20048;-67
2021/04/11 03:33:12;;;;;;;13.93;3.17;;;2.70;99.90;;;;;;10475502;28;20084;-67
2021/04/11 03:38:15;;;;;;;12.20;2.92;;;2.70;99.90;;;;;;10476264;28;20066;-67
2021/04/11 03:43:20;;;;;;;7.50;2.35;;;2.70;99.90;;;;;;10476455;28;20139;-67
2021/04/11 03:48:25;;;;;;;10.25;2.83;;;2.60;99.90;;;;;;10478258;28;20052;-67
2021/04/11 03:53:34;;;;;;;21.50;3.05;;;2.60;99.90;;;;;;10477307;28;20131;-66
2021/04/11 03:58:42;;;;;;;14.75;3.35;;;2.60;99.90;;;;;;10475908;28;20135;-67
2021/04/11 04:03:45;;;;;;;31.65;5.43;;;2.70;99.90;;;;;;10475515;28;20500;-67
2021/04/11 04:08:46;;;;;;;10.32;3.38;;;2.80;99.90;;;;;;10475005;28;20517;-67
2021/04/11 04:14:06;;;;;;;13.00;3.47;;;2.90;99.90;;;;;;10474762;28;20563;-67
2021/04/11 04:19:21;;;;;;;23.63;3.90;;;2.80;99.90;;;;;;10473545;28;20060;-68
2021/04/11 04:24:34;;;;;;;26.30;4.13;;;2.80;99.90;;;;;;10470124;28;20062;-68
2021/04/11 04:29:41;;;;;;;17.60;3.70;;;2.90;99.90;;;;;;10472772;28;20515;-68
2021/04/11 04:34:47;;;;;;;16.20;3.88;;;3.00;99.90;;;;;;10471289;28;20064;-69
2021/04/11 04:39:54;;;;;;;24.23;4.22;;;3.00;99.90;;;;;;10473524;28;20400;-69
2021/04/11 04:45:06;;;;;;;27.45;3.67;;;3.00;99.90;;;;;;10473788;28;20056;-68
2021/04/11 04:50:14;;;;;;;20.60;3.37;;;3.00;99.90;;;;;;10474649;28;20195;-68
2021/04/11 04:55:20;;;;;;;12.65;2.92;;;3.00;99.90;;;;;;10474248;28;20123;-68
2021/04/11 05:00:26;;;;;;;14.25;4.20;;;3.00;99.90;;;;;;10471487;28;20062;-69
2021/04/11 05:05:30;;;;;;;12.77;2.92;;;3.10;99.90;;;;;;10467737;28;20487;-68
2021/04/11 05:10:37;;;;;;;11.00;2.80;;;3.10;99.90;;;;;;10467423;28;20389;-67
2021/04/11 05:15:42;;;;;;;15.90;3.03;;;3.20;99.90;;;;;;10470200;28;20066;-68
2021/04/11 05:20:50;;;;;;;12.70;2.65;;;3.20;99.90;;;;;;10468984;28;20052;-70
2021/04/11 05:26:00;;;;;;;13.45;2.38;;;3.20;99.90;;;;;;10467591;28;20070;-69
2021/04/11 05:31:06;;;;;;;4.38;1.75;;;3.20;99.90;;;;;;10470750;28;20150;-69
2021/04/11 05:36:17;;;;;;;12.65;1.77;;;3.20;99.90;;;;;;10467967;28;20129;-70
2021/04/11 05:41:25;;;;;;;12.70;1.63;;;3.10;99.90;;;;;;10465038;28;20041;-69
2021/04/11 05:46:35;;;;;;;20.98;2.22;;;3.10;99.90;;;;;;10464048;28;20185;-69
2021/04/11 05:51:39;;;;;;;10.70;2.28;;;3.30;99.90;;;;;;10463402;28;20048;-69
2021/04/11 05:56:43;;;;;;;12.05;1.70;;;3.70;99.90;;;;;;10468078;28;20089;-70
2021/04/11 06:01:50;;;;;;;12.48;1.92;;;4.00;99.90;;;;;;10470688;28;20053;-69
2021/04/11 06:06:56;;;;;;;11.95;3.03;;;5.60;99.80;;;;;;10466721;28;20068;-68
2021/04/11 06:12:03;;;;;;;9.93;1.25;;;8.10;91.50;;;;;;10468612;28;20047;-69
2021/04/11 06:17:10;;;;;;;11.50;1.63;;;8.80;89.70;;;;;;10470270;28;20044;-70
2021/04/11 06:22:18;;;;;;;5.28;1.27;;;7.80;91.10;;;;;;10470153;28;20048;-69
2021/04/11 06:27:39;;;;;;;3.25;0.90;;;6.30;93.80;;;;;;10470459;28;20040;-69
2021/04/11 06:32:46;;;;;;;9.35;1.50;;;5.70;95.40;;;;;;10462861;28;20106;-69
2021/04/11 06:37:51;;;;;;;20.38;1.88;;;5.80;95.90;;;;;;10469743;28;20366;-70
2021/04/11 06:43:24;;;;;;;8.65;2.28;;;5.90;96.10;;;;;;10469082;28;20066;-69
2021/04/11 06:48:49;;;;;;;7.53;1.23;;;6.40;95.10;;;;;;10466072;28;20062;-70
2021/04/11 06:54:24;;;;;;;9.48;1.33;;;6.60;92.90;;;;;;10456333;28;20061;-70
2021/04/11 06:59:42;;;;;;;6.75;1.20;;;6.30;93.10;;;;;;10468249;28;20167;-69
2021/04/11 07:05:19;;;;;;;5.15;0.95;;;6.10;92.90;;;;;;10470249;28;20191;-71
2021/04/11 07:10:39;;;;;;;4.72;1.00;;;6.20;93.30;;;;;;10473140;28;20050;-71
2021/04/11 07:16:19;;;;;;;5.75;1.63;;;7.10;90.20;;;;;;10476231;28;20162;-70
2021/04/11 07:21:56;;;;;;;9.38;0.95;;;6.90;91.30;;;;;;10476070;28;20140;-71
2021/04/11 07:27:03;;;;;;;4.82;1.25;;;10.20;83.00;;;;;;10469454;28;20036;-71
2021/04/11 07:32:24;;;;;;;2.78;0.90;;;15.30;55.70;;;;;;10469121;28;20056;-70
2021/04/11 07:37:43;;;;;;;4.35;0.90;;;17.10;45.90;;;;;;10460688;28;20048;-70
2021/04/11 07:43:17;;;;;;;6.50;1.20;;;16.60;45.60;;;;;;10469859;28;20049;-71
2021/04/11 07:48:54;;;;;;;4.57;0.73;;;17.10;46.00;;;;;;10473133;28;20079;-72
2021/04/11 07:54:11;;;;;;;3.72;0.90;;;19.00;39.70;;;;;;10468921;28;20175;-72
2021/04/11 07:59:39;;;;;;;5.88;1.27;;;14.80;47.10;;;;;;10480770;28;20040;-71
2021/04/11 08:05:06;;;;;;;2.55;0.70;;;12.20;53.10;;;;;;10467393;28;20616;-71
2021/04/11 08:10:18;;;;;;;2.40;1.15;;;11.40;55.80;;;;;;10458869;28;20072;-71
2021/04/11 08:15:26;;;;;;;7.68;0.90;;;12.80;52.40;;;;;;10472159;28;20123;-72
2021/04/11 08:20:49;;;;;;;7.30;1.58;;;12.00;51.50;;;;;;10470006;28;20054;-71
2021/04/11 08:26:09;;;;;;;6.18;1.02;;;10.30;59.80;;;;;;10474236;28;20668;-71
2021/04/11 08:31:51;;;;;;;9.75;1.85;;;8.40;65.90;;;;;;10472485;28;20052;-70
2021/04/11 08:37:19;;;;;;;7.68;1.48;;;8.20;69.30;;;;;;10471206;28;20066;-71
2021/04/11 08:42:45;;;;;;;4.32;1.17;;;8.40;70.10;;;;;;10471234;28;20052;-70
2021/04/11 08:47:52;;;;;;;4.75;0.98;;;10.10;64.30;;;;;;10470496;28;20091;-71
2021/04/11 08:53:07;;;;;;;3.42;0.88;;;14.20;48.30;;;;;;10470660;28;20059;-69
2021/04/11 08:58:31;;;;;;;5.55;1.10;;;14.00;47.50;;;;;;10472686;28;20488;-77
2021/04/11 09:03:46;;;;;;;4.57;0.80;;;13.20;48.40;;;;;;10467962;28;20539;-69
2021/04/11 09:09:00;;;;;;;13.32;1.48;;;12.00;55.30;;;;;;10469414;28;20044;-68
2021/04/11 09:14:15;;;;;;;4.25;0.90;;;10.30;57.50;;;;;;10469406;28;20106;-68
2021/04/11 09:19:25;;;;;;;8.55;1.17;;;9.90;60.60;;;;;;10468010;28;20548;-68
2021/04/11 09:24:33;;;;;;;4.50;0.70;;;9.90;61.00;;;;;;10471309;28;20587;-68
2021/04/11 09:29:47;;;;;;;5.43;0.98;;;12.70;51.40;;;;;;10468895;28;20080;-69
2021/04/11 09:35:11;;;;;;;6.47;1.02;;;15.00;43.60;;;;;;10462943;28;20391;-68
2021/04/11 09:40:23;;;;;;;5.88;0.80;;;15.00;43.20;;;;;;10466954;28;20056;-72
2021/04/11 09:45:38;;;;;;;7.05;1.05;;;16.10;40.20;;;;;;10467342;28;20411;-68
2021/04/11 09:50:50;;;;;;;8.25;1.10;;;16.70;38.60;;;;;;10466410;28;20488;-65
2021/04/11 09:56:03;;;;;;;3.17;1.10;;;16.50;39.30;;;;;;10467368;28;20120;-65
2021/04/11 10:01:13;;;;;;;8.88;1.02;;;16.20;40.40;;;;;;10470667;28;20046;-66
2021/04/11 10:06:26;;;;;;;2.92;0.60;;;15.50;42.80;;;;;;10471919;28;20068;-65
2021/04/11 10:11:39;;;;;;;4.45;0.85;;;17.00;38.80;;;;;;10468458;28;20798;-67
2021/04/11 10:16:55;;;;;;;5.72;1.15;;;14.90;43.40;;;;;;10466439;28;20102;-65
2021/04/11 10:22:09;;;;;;;5.55;0.90;;;14.90;42.20;;;;;;10465168;28;20037;-67
2021/04/11 10:27:19;;;;;;;4.28;1.15;;;16.70;38.80;;;;;;10463874;28;20421;-65
2021/04/11 10:32:31;;;;;;;2.38;0.77;;;16.20;38.40;;;;;;10466556;28;20095;-65
2021/04/11 10:37:37;;;;;;;7.25;1.35;;;15.50;40.60;;;;;;10465267;28;20485;-64
2021/04/11 10:42:48;;;;;;;5.03;0.50;;;16.70;39.20;;;;;;10467536;28;20066;-68
2021/04/11 10:48:12;;;;;;;4.22;1.60;;;16.90;37.30;;;;;;10473610;28;20040;-65
2021/04/11 10:53:36;;;;;;;7.22;0.90;;;15.90;37.50;;;;;;10474334;28;20161;-66
2021/04/11 10:59:00;;;;;;;5.97;1.00;;;14.10;43.70;;;;;;10474483;28;20154;-66
2021/04/11 11:04:34;;;;;;;4.53;0.95;;;14.80;44.30;;;;;;10474854;28;20536;-65
2021/04/11 11:09:40;;;;;;;5.25;1.08;;;15.00;42.90;;;;;;10468592;28;20083;-68
2021/04/11 11:15:06;;;;;;;4.90;0.82;;;14.00;46.50;;;;;;10472882;28;20067;-64
2021/04/11 11:20:17;;;;;;;1.95;0.68;;;14.50;45.30;;;;;;10470986;28;20058;-64
2021/04/11 11:25:27;;;;;;;1.97;0.70;;;15.20;43.40;;;;;;10467256;28;20054;-66
2021/04/11 11:30:49;;;;;;;4.70;0.73;;;15.40;41.00;;;;;;10468953;28;20056;-65
2021/04/11 11:36:21;;;;;;;3.58;0.82;;;15.60;40.00;;;;;;10467387;28;20468;-66
2021/04/11 11:41:28;;;;;;;2.05;0.70;;;15.80;41.20;;;;;;10471850;28;20550;-66
2021/04/11 11:46:39;;;;;;;5.05;1.00;;;15.40;40.80;;;;;;10470155;28;20762;-64
2021/04/11 11:51:50;;;;;;;4.25;0.90;;;15.80;40.50;;;;;;10472452;28;20470;-66
2021/04/11 11:57:04;;;;;;;4.67;0.70;;;16.20;39.40;;;;;;10467814;28;20378;-66
2021/04/11 12:02:25;;;;;;;6.10;0.70;;;16.70;39.20;;;;;;10470333;28;20139;-69
2021/04/11 12:07:41;;;;;;;3.30;0.50;;;16.50;39.20;;;;;;10470461;28;20147;-69
2021/04/11 12:12:53;;;;;;;6.28;1.30;;;15.20;39.90;;;;;;10471603;28;20089;-68
2021/04/11 12:18:03;;;;;;;3.90;1.23;;;14.20;42.70;;;;;;10472303;28;20135;-68
2021/04/11 12:23:11;;;;;;;4.60;1.58;;;14.60;42.40;;;;;;10471780;28;20150;-68
2021/04/11 12:28:22;;;;;;;3.92;0.80;;;14.50;42.70;;;;;;10472846;28;20642;-67
2021/04/11 12:33:34;;;;;;;4.60;0.73;;;14.90;41.90;;;;;;10471913;28;20105;-67
2021/04/11 12:38:43;;;;;;;5.68;0.80;;;14.60;38.30;;;;;;10471265;28;20056;-67
2021/04/11 12:43:54;;;;;;;2.78;0.77;;;14.30;40.50;;;;;;10471875;28;20052;-70
2021/04/11 12:49:03;;;;;;;6.75;0.90;;;14.70;39.80;;;;;;10472723;28;20139;-69
2021/04/11 12:54:12;;;;;;;5.68;0.73;;;14.00;40.90;;;;;;10471672;28;20048;-68
2021/04/11 12:59:20;;;;;;;1.83;0.80;;;14.10;40.80;;;;;;10472706;28;20047;-68
2021/04/11 13:04:28;;;;;;;5.35;1.02;;;13.20;42.40;;;;;;10471361;28;20076;-69
2021/04/11 13:09:52;;;;;;;4.22;0.93;;;13.50;43.10;;;;;;10471793;28;20044;-68
2021/04/11 13:15:02;;;;;;;6.00;0.80;;;14.30;40.70;;;;;;10464507;28;20505;-68
2021/04/11 13:20:12;;;;;;;2.10;0.50;;;14.20;42.20;;;;;;10468964;28;20056;-71
2021/04/11 13:25:19;;;;;;;5.97;0.70;;;14.40;41.60;;;;;;10467549;28;20864;-68
2021/04/11 13:30:25;;;;;;;4.43;1.10;;;14.60;41.40;;;;;;10467660;28;20052;-69
2021/04/11 13:35:30;;;;;;;10.55;1.05;;;14.00;41.20;;;;;;10468810;28;20044;-68
2021/04/11 13:40:36;;;;;;;5.45;1.10;;;13.40;44.00;;;;;;10468178;28;20044;-68
2021/04/11 13:45:43;;;;;;;4.05;0.85;;;12.60;43.60;;;;;;10467367;28;20430;-67
2021/04/11 13:50:56;;;;;;;4.75;0.98;;;11.80;45.90;;;;;;10468667;28;20315;-68
2021/04/11 13:56:07;;;;;;;5.88;1.20;;;11.80;45.90;;;;;;10468014;28;20044;-67
2021/04/11 14:01:13;;;;;;;4.40;0.82;;;11.80;45.20;;;;;;10468016;28;20374;-68
2021/04/11 14:06:21;;;;;;;4.15;0.63;;;12.00;43.70;;;;;;10468779;28;20055;-65
2021/04/11 14:11:28;;;;;;;5.03;0.88;;;11.90;44.00;;;;;;10467607;28;20369;-70
2021/04/11 14:16:40;;;;;;;5.53;0.90;;;11.80;44.40;;;;;;10468211;28;20039;-68
2021/04/11 14:21:46;;;;;;;4.53;0.70;;;11.90;43.80;;;;;;10474690;28;20139;-68
2021/04/11 14:26:54;;;;;;;6.15;0.75;;;11.90;44.20;;;;;;10475454;28;20054;-68
2021/04/11 14:32:05;;;;;;;4.40;0.73;;;12.00;48.10;;;;;;10468071;28;20054;-67
2021/04/11 14:37:17;;;;;;;8.40;2.22;;;11.40;49.80;;;;;;10469901;28;20102;-67
2021/04/11 14:42:23;;;;;;;10.48;1.05;;;11.20;50.20;;;;;;10468773;28;20055;-68
2021/04/11 14:47:31;;;;;;;6.28;2.45;;;11.50;48.10;;;;;;10472622;28;20056;-68
2021/04/11 14:52:47;;;;;;;11.50;2.58;;;11.80;48.20;;;;;;10468730;28;20137;-67
2021/04/11 14:57:56;;;;;;;6.20;1.08;;;12.50;46.90;;;;;;10472231;28;21560;-69
2021/04/11 15:03:09;;;;;;;9.68;0.90;;;13.10;44.60;;;;;;10475666;28;20147;-71
2021/04/11 15:08:16;;;;;;;7.57;0.70;;;13.20;43.70;;;;;;10474498;28;20121;-69
2021/04/11 15:13:26;;;;;;;4.45;0.63;;;12.90;43.10;;;;;;10473897;28;20052;-68
2021/04/11 15:18:37;;;;;;;2.45;0.80;;;12.70;44.00;;;;;;10469239;28;20118;-67
2021/04/11 15:23:46;;;;;;;3.95;0.77;;;12.20;45.30;;;;;;10473424;28;20147;-68
2021/04/11 15:28:53;;;;;;;4.85;0.80;;;13.00;46.60;;;;;;10472469;28;20135;-68
2021/04/11 15:34:44;;;;;;;3.83;1.00;;;10.70;47.40;;;;;;10472933;28;20133;-67
2021/04/11 15:39:55;;;;;;;1.95;0.77;;;10.30;47.60;;;;;;10471452;28;20044;-70
2021/04/11 15:45:09;;;;;;;6.32;1.20;;;10.00;49.90;;;;;;10472850;28;20101;-69
2021/04/11 15:50:15;;;;;;;4.50;0.70;;;10.20;49.60;;;;;;10471060;28;20048;-68
2021/04/11 15:55:24;;;;;;;2.05;0.82;;;10.10;49.60;;;;;;10466154;28;20091;-69
2021/04/11 16:00:30;;;;;;;3.03;1.42;;;10.10;49.20;;;;;;10468792;28;20469;-70
2021/04/11 16:05:39;;;;;;;2.58;0.70;;;10.10;50.40;;;;;;10470826;28;20044;-69
2021/04/11 16:10:43;;;;;;;5.50;1.45;;;9.90;49.00;;;;;;10468981;28;20127;-68
2021/04/11 16:15:56;;;;;;;6.88;0.82;;;9.70;51.30;;;;;;10469793;28;20564;-68
2021/04/11 16:21:24;;;;;;;6.97;1.10;;;9.50;52.70;;;;;;10471709;28;20483;-69
2021/04/11 16:26:32;;;;;;;3.85;1.25;;;9.40;53.70;;;;;;10471085;28;20045;-69
2021/04/11 16:31:46;;;;;;;4.30;0.85;;;9.30;53.10;;;;;;10469611;28;20065;-69
2021/04/11 16:36:55;;;;;;;1.33;0.68;;;8.90;53.10;;;;;;10470538;28;20477;-68
2021/04/11 16:42:12;;;;;;;1.67;0.60;;;8.60;55.60;;;;;;10471222;28;20091;-69
2021/04/11 16:47:20;;;;;;;2.22;0.88;;;8.50;56.40;;;;;;10469388;28;20144;-70
2021/04/11 16:52:30;;;;;;;3.15;0.88;;;8.20;59.20;;;;;;10470501;28;21128;-69
2021/04/11 16:57:40;;;;;;;4.28;0.77;;;8.20;59.20;;;;;;10467629;28;20076;-68
2021/04/11 17:02:48;;;;;;;8.70;0.70;;;7.90;60.00;;;;;;10470714;28;20195;-69
2021/04/11 17:08:02;;;;;;;5.72;0.70;;;7.60;62.10;;;;;;10469990;28;20567;-69
2021/04/11 17:13:24;;;;;;;4.35;1.02;;;7.50;62.70;;;;;;10469938;28;20052;-69
2021/04/11 17:18:27;;;;;;;1.98;0.90;;;7.30;62.00;;;;;;10469365;28;20048;-70
2021/04/11 17:23:33;;;;;;;3.97;0.63;;;7.30;63.30;;;;;;10470067;28;20160;-69
2021/04/11 17:28:40;;;;;;;4.28;0.70;;;7.70;63.90;;;;;;10467023;28;20056;-69
2021/04/11 17:33:51;;;;;;;5.00;0.93;;;7.20;63.60;;;;;;10466957;28;20114;-70
2021/04/11 17:39:06;;;;;;;6.70;0.98;;;6.90;65.60;;;;;;10468209;28;20591;-68
2021/04/11 17:44:37;;;;;;;4.03;0.88;;;6.90;67.00;;;;;;10468473;28;20150;-68
2021/04/11 17:49:48;;;;;;;2.25;0.73;;;6.90;66.10;;;;;;10466139;28;20059;-69
2021/04/11 17:54:54;;;;;;;11.95;4.82;;;6.50;66.40;;;;;;10467745;28;20065;-70
2021/04/11 18:00:10;;;;;;;6.22;1.60;;;6.30;67.30;;;;;;10469048;28;20106;-68
2021/04/11 18:05:20;;;;;;;3.08;1.05;;;7.60;70.50;;;;;;10468612;28;20436;-69
2021/04/11 18:10:28;;;;;;;1.95;1.10;;;5.90;72.60;;;;;;10467871;28;20057;-70
2021/04/11 18:15:39;;;;;;;4.60;1.38;;;5.70;75.50;;;;;;10468996;28;20332;-68
2021/04/11 18:20:46;;;;;;;3.67;1.00;;;5.50;77.10;;;;;;10469381;28;20044;-67
2021/04/11 18:25:56;;;;;;;2.05;0.88;;;5.30;77.00;;;;;;10469267;28;20173;-67
2021/04/11 18:31:10;;;;;;;4.28;1.00;;;5.20;78.50;;;;;;10469813;28;20417;-68
2021/04/11 18:36:22;;;;;;;9.65;1.73;;;5.00;80.20;;;;;;10467837;28;20087;-69
2021/04/11 18:41:38;;;;;;;3.92;1.20;;;4.80;84.00;;;;;;10470259;28;20207;-69
2021/04/11 18:46:43;;;;;;;6.80;1.95;;;4.70;87.80;;;;;;10469880;28;20106;-68
2021/04/11 18:51:56;;;;;;;3.45;0.85;;;4.50;90.10;;;;;;10467356;28;20045;-68
2021/04/11 18:57:13;;;;;;;6.03;1.10;;;4.30;90.70;;;;;;10468729;28;20503;-67
2021/04/11 19:02:22;;;;;;;2.83;1.27;;;4.10;93.00;;;;;;10464249;28;20465;-70
2021/04/11 19:07:30;;;;;;;1.85;0.93;;;4.00;91.20;;;;;;10475326;28;20491;-66
2021/04/11 19:12:47;;;;;;;4.70;1.38;;;3.70;92.60;;;;;;10471724;28;20036;-68
2021/04/11 19:17:58;;;;;;;9.75;1.10;;;3.80;90.90;;;;;;10472890;28;20118;-70
2021/04/11 19:23:43;;;;;;;3.88;1.02;;;3.70;90.50;;;;;;10474896;28;20048;-70
2021/04/11 19:29:24;;;;;;;4.63;1.17;;;3.70;90.60;;;;;;10470599;28;20106;-70
2021/04/11 19:34:46;;;;;;;4.57;1.10;;;3.70;90.40;;;;;;10471097;28;20083;-69
2021/04/11 19:40:38;;;;;;;4.95;0.93;;;3.60;90.30;;;;;;10473715;28;20151;-69
2021/04/11 19:46:01;;;;;;;18.98;5.57;;;3.50;90.30;;;;;;10468439;28;20102;-69
2021/04/11 19:51:16;;;;;;;7.17;1.30;;;3.40;90.60;;;;;;10473679;28;20082;-70
2021/04/11 19:56:58;;;;;;;2.28;0.88;;;3.30;90.50;;;;;;10472097;28;20159;-73
2021/04/11 20:02:09;;;;;;;5.07;1.23;;;3.20;90.40;;;;;;10471544;28;20080;-69
2021/04/11 20:07:25;;;;;;;4.90;0.80;;;3.10;90.90;;;;;;10464424;28;20072;-68
2021/04/11 20:12:42;;;;;;;1.70;1.13;;;3.00;91.10;;;;;;10472240;28;20127;-69
2021/04/11 20:17:49;;;;;;;5.07;1.33;;;2.90;90.80;;;;;;10471588;28;20110;-70
2021/04/11 20:23:08;;;;;;;3.85;0.90;;;2.80;91.30;;;;;;10469094;28;20075;-70
2021/04/11 20:28:34;;;;;;;3.17;0.80;;;2.80;91.50;;;;;;10465735;28;20053;-70
2021/04/11 20:33:49;;;;;;;1.58;0.90;;;2.80;91.70;;;;;;10469548;28;20060;-68
2021/04/11 20:39:13;;;;;;;2.40;1.02;;;2.80;91.60;;;;;;10476235;28;20120;-70
2021/04/11 20:44:26;;;;;;;7.20;1.15;;;2.80;91.80;;;;;;10473031;28;20137;-70
2021/04/11 20:49:56;;;;;;;5.82;1.38;;;2.90;91.90;;;;;;10471226;28;20094;-68
2021/04/11 20:55:08;;;;;;;5.90;1.60;;;3.30;92.60;;;;;;10469893;28;20044;-69
2021/04/11 21:00:27;;;;;;;2.15;0.85;;;3.60;93.20;;;;;;10471873;28;20143;-69
2021/04/11 21:05:54;;;;;;;1.20;0.82;;;3.50;93.60;;;;;;10468610;28;20487;-71
2021/04/11 21:11:08;;;;;;;4.53;1.30;;;3.50;93.80;;;;;;10469304;28;20068;-70
2021/04/11 21:16:25;;;;;;;1.65;0.70;;;3.40;93.80;;;;;;10474027;28;20123;-70
2021/04/11 21:21:53;;;;;;;3.00;0.80;;;3.30;93.40;;;;;;10472604;28;20206;-70
2021/04/11 21:27:24;;;;;;;2.08;0.80;;;3.30;93.30;;;;;;10470571;28;20054;-70
2021/04/11 21:32:36;;;;;;;0.80;0.68;;;3.40;94.20;;;;;;10463406;28;20384;-70
2021/04/11 21:37:51;;;;;;;25.15;6.55;;;3.70;95.10;;;;;;10471158;28;20139;-72
2021/04/11 21:43:00;;;;;;;3.60;0.82;;;3.70;95.90;;;;;;10467262;28;20198;-71
2021/04/11 21:48:35;;;;;;;0.73;0.60;;;2.90;95.80;;;;;;10455690;28;20041;-71
2021/04/11 21:53:46;;;;;;;1.83;0.80;;;2.60;96.20;;;;;;10472105;28;20052;-71
2021/04/11 21:59:22;;;;;;;1.75;0.80;;;2.60;96.10;;;;;;10474473;28;20040;-71
2021/04/11 22:04:42;;;;;;;1.05;0.80;;;2.70;95.80;;;;;;10468084;28;20106;-71
2021/04/11 22:09:52;;;;;;;4.47;1.15;;;2.60;96.10;;;;;;10473937;28;20140;-71
2021/04/11 22:14:59;;;;;;;3.58;1.15;;;2.40;96.00;;;;;;10472467;28;20093;-71
2021/04/11 22:20:12;;;;;;;3.80;0.90;;;2.10;96.10;;;;;;10471299;28;20075;-71
2021/04/11 22:25:18;;;;;;;1.05;0.80;;;1.90;96.30;;;;;;10474060;28;20742;-72
2021/04/11 22:30:33;;;;;;;1.23;1.08;;;1.70;96.50;;;;;;10472985;28;20064;-72
2021/04/11 22:35:40;;;;;;;6.07;1.35;;;1.70;97.20;;;;;;10473490;28;20063;-71
2021/04/11 22:40:53;;;;;;;9.02;1.00;;;1.70;97.40;;;;;;10476257;28;20431;-71
2021/04/11 22:46:01;;;;;;;9.10;0.95;;;1.70;98.10;;;;;;10480603;28;21197;-70
2021/04/11 22:51:07;;;;;;;12.27;1.50;;;1.70;98.50;;;;;;10478823;28;20046;-70
2021/04/11 22:56:15;;;;;;;3.27;0.87;;;1.70;98.70;;;;;;10478619;28;20131;-70
2021/04/11 23:01:22;;;;;;;2.17;1.03;;;1.70;99.10;;;;;;10477264;28;20128;-70
2021/04/11 23:06:33;;;;;;;5.13;1.60;;;1.80;99.30;;;;;;10477335;28;20423;-70
2021/04/11 23:11:39;;;;;;;9.38;1.63;;;1.70;99.20;;;;;;10472800;28;20080;-70
2021/04/11 23:16:56;;;;;;;5.97;1.13;;;1.80;99.60;;;;;;10475084;28;20521;-70
2021/04/11 23:22:03;;;;;;;3.93;1.20;;;1.80;99.70;;;;;;10474849;28;20040;-70
2021/04/11 23:27:13;;;;;;;9.60;1.43;;;1.70;99.60;;;;;;10474483;28;20096;-71
2021/04/11 23:32:24;;;;;;;10.18;1.50;;;3.30;99.90;;;;;;10475030;28;20045;-70
2021/04/11 23:37:34;;;;;;;1.92;1.10;;;1.90;99.90;;;;;;10474647;28;20568;-71
2021/04/11 23:42:45;;;;;;;2.17;0.90;;;2.00;99.90;;;;;;10472018;28;20534;-71
2021/04/11 23:47:56;;;;;;;2.20;0.73;;;2.10;99.90;;;;;;10472954;28;20082;-71
2021/04/11 23:53:06;;;;;;;4.47;0.88;;;2.00;99.90;;;;;;10471156;28;20109;-71
2021/04/11 23:58:19;;;;;;;3.53;0.80;;;1.80;99.90;;;;;;10473130;28;20467;-71
